Time;durP1;ratioP1;P1;durP2;ratioP2;P2;SDS_P1;SDS_P2;PMS_P1;PMS_P2;Temp;Humidity;BMP_temperature;BMP_pressure;BME280_temperature;BME280_humidity;BME280_pressure;Samples;Min_cycle;Max_cycle;Signal;HPM_P1;HPM_P2
2022/06/14 00:00:54;;;;;;;8.93;2.80;;;;;;;12.01;70.83;102378.72;5041891;28;20020;-56
2022/06/14 00:03:20;;;;;;;8.20;2.53;;;;;;;11.92;70.34;102376.09;5036143;28;20032;-56
2022/06/14 00:05:46;;;;;;;7.43;2.58;;;;;;;11.86;70.52;102380.16;5036172;28;20409;-56
2022/06/14 00:08:13;;;;;;;9.30;2.92;;;;;;;11.76;70.83;102379.28;5036453;28;20020;-56
2022/06/14 00:10:39;;;;;;;8.93;2.70;;;;;;;11.67;70.53;102377.47;5040213;28;20029;-57
2022/06/14 00:13:05;;;;;;;8.73;2.83;;;;;;;11.62;70.55;102385.88;5035677;28;20035;-57
2022/06/14 00:15:31;;;;;;;11.05;2.92;;;;;;;11.54;70.98;102384.88;5038424;28;20025;-57
2022/06/14 00:17:56;;;;;;;13.40;3.22;;;;;;;11.48;70.80;102388.91;5037188;28;20025;-57
2022/06/14 00:20:22;;;;;;;14.27;4.03;;;;;;;11.42;71.36;102376.19;5035755;28;20029;-55
2022/06/14 00:22:47;;;;;;;10.85;3.03;;;;;;;11.47;71.22;102384.59;5038792;28;20057;-56
2022/06/14 00:25:41;;;;;;;9.80;2.85;;;;;;;11.48;71.60;102386.25;5035371;28;20033;-56
2022/06/14 00:28:09;;;;;;;8.98;2.70;;;;;;;11.35;71.78;102381.22;5031313;28;20033;-55
2022/06/14 00:30:36;;;;;;;13.10;3.00;;;;;;;11.33;71.72;102383.19;5035459;28;20708;-55
2022/06/14 00:33:01;;;;;;;13.23;3.03;;;;;;;11.32;72.24;102378.84;5038060;28;20025;-57
2022/06/14 00:35:27;;;;;;;7.97;2.85;;;;;;;11.38;72.13;102386.25;5039579;28;20418;-57
2022/06/14 00:37:53;;;;;;;12.32;3.13;;;;;;;11.30;72.05;102388.78;5034216;28;20032;-56
2022/06/14 00:40:22;;;;;;;9.57;2.92;;;;;;;11.31;72.25;102378.97;5039291;28;20476;-57
2022/06/14 00:42:47;;;;;;;6.93;2.70;;;;;;;11.22;72.10;102372.66;5039244;28;20423;-56
2022/06/14 00:45:12;;;;;;;9.68;3.03;;;;;;;11.21;72.22;102384.25;5039743;28;20489;-56
2022/06/14 00:47:43;;;;;;;7.85;2.67;;;;;;;11.11;72.64;102386.06;5039307;28;20066;-57
2022/06/14 00:50:17;;;;;;;7.97;2.70;;;;;;;11.06;72.60;102375.84;5035685;28;20033;-57
2022/06/14 00:52:49;;;;;;;7.22;3.15;;;;;;;10.99;72.83;102387.16;5037201;28;20033;-57
2022/06/14 00:55:24;;;;;;;6.95;2.80;;;;;;;10.97;73.41;102389.09;5037183;28;20536;-57
2022/06/14 00:57:56;;;;;;;7.97;3.03;;;;;;;10.93;73.30;102379.69;5034902;28;20447;-56
2022/06/14 01:00:28;;;;;;;11.95;3.10;;;;;;;11.00;73.39;102380.88;5040414;28;20112;-57
2022/06/14 01:02:58;;;;;;;9.73;3.00;;;;;;;11.05;73.80;102370.66;5038742;28;20110;-57
2022/06/14 01:08:57;;;;;;;9.65;2.88;;;;;;;11.14;73.71;102367.19;5038925;28;20118;-56
2022/06/14 01:11:40;;;;;;;8.00;2.92;;;;;;;11.15;73.60;102366.19;5038850;28;20500;-55
2022/06/14 01:14:07;;;;;;;9.85;2.70;;;;;;;11.12;73.79;102363.81;5037490;28;20021;-56
2022/06/14 01:16:34;;;;;;;14.13;3.22;;;;;;;11.11;73.49;102359.47;5040201;28;20033;-55
2022/06/14 01:19:00;;;;;;;9.73;3.10;;;;;;;10.98;73.84;102370.34;5037806;28;20044;-56
2022/06/14 01:21:28;;;;;;;6.47;2.80;;;;;;;10.85;73.55;102367.09;5038741;28;20037;-56
2022/06/14 01:23:53;;;;;;;9.35;3.00;;;;;;;10.93;73.78;102363.75;5039656;28;20263;-55
2022/06/14 01:26:24;;;;;;;8.77;2.92;;;;;;;10.92;73.68;102362.06;5037736;28;20164;-56
2022/06/14 01:28:56;;;;;;;6.80;2.83;;;;;;;10.85;73.68;102353.81;5033869;28;20450;-56
2022/06/14 01:31:23;;;;;;;8.45;2.85;;;;;;;10.74;73.54;102364.56;5039477;28;20029;-56
2022/06/14 01:33:56;;;;;;;9.10;3.20;;;;;;;10.64;74.08;102363.66;5036901;28;20060;-56
2022/06/14 01:36:31;;;;;;;11.60;3.33;;;;;;;10.61;74.39;102355.94;5035918;28;20497;-54
2022/06/14 01:39:03;;;;;;;9.88;3.40;;;;;;;10.57;74.23;102357.19;5035202;28;20468;-54
2022/06/14 01:42:18;;;;;;;13.98;3.47;;;;;;;10.62;74.83;102357.63;5039825;28;20053;-56
2022/06/14 01:45:10;;;;;;;10.82;3.30;;;;;;;10.52;75.05;102357.59;5025587;28;20112;-56
2022/06/14 01:47:46;;;;;;;9.00;2.90;;;;;;;10.35;74.95;102352.91;5039072;28;20028;-56
2022/06/14 01:53:35;;;;;;;8.80;3.05;;;;;;;10.24;75.49;102345.84;5038742;28;20459;-56
2022/06/14 01:56:37;;;;;;;10.65;3.45;;;;;;;10.29;76.05;102337.50;5038912;28;20382;-56
2022/06/14 01:59:08;;;;;;;10.70;3.28;;;;;;;10.23;76.00;102341.53;5042685;28;20116;-56
2022/06/14 02:01:45;;;;;;;10.82;3.13;;;;;;;10.15;76.36;102346.63;5041153;28;20116;-57
2022/06/14 02:07:10;;;;;;;10.95;3.58;;;;;;;10.09;77.08;102347.97;5041419;28;20545;-56
2022/06/14 02:09:53;;;;;;;13.23;3.60;;;;;;;10.07;77.12;102341.94;5041932;28;20039;-56
2022/06/14 02:12:28;;;;;;;9.07;2.90;;;;;;;10.09;77.08;102345.31;5046188;28;20033;-57
2022/06/14 02:15:16;;;;;;;6.75;2.63;;;;;;;10.18;77.44;102336.59;5046546;28;20032;-57
2022/06/14 02:17:48;;;;;;;10.10;3.17;;;;;;;10.24;77.30;102336.09;5035007;28;20376;-57
2022/06/14 02:20:20;;;;;;;9.18;3.00;;;;;;;10.29;76.78;102334.84;5041687;28;20029;-56
2022/06/14 02:22:55;;;;;;;9.68;3.50;;;;;;;10.26;76.90;102332.44;5039601;28;20693;-57
2022/06/14 02:25:27;;;;;;;9.13;2.88;;;;;;;10.20;76.54;102334.66;5040403;28;20799;-57
2022/06/14 02:28:20;;;;;;;9.23;3.15;;;;;;;10.29;77.04;102334.84;5039984;28;20040;-56
2022/06/14 02:30:52;;;;;;;8.77;3.17;;;;;;;10.20;76.66;102334.66;5029515;28;21554;-57
2022/06/14 02:33:27;;;;;;;8.38;2.90;;;;;;;10.12;76.76;102328.28;5043049;28;20029;-56
2022/06/14 02:35:59;;;;;;;8.00;3.20;;;;;;;10.21;76.77;102323.06;5037078;28;20451;-56
2022/06/14 02:38:33;;;;;;;11.10;3.45;;;;;;;10.24;76.89;102325.47;5044535;28;20037;-57
2022/06/14 02:41:10;;;;;;;10.27;3.30;;;;;;;10.17;76.73;102318.97;5044703;28;20028;-56
2022/06/14 02:43:41;;;;;;;7.68;3.08;;;;;;;10.11;76.90;102318.63;5049537;28;20029;-57
2022/06/14 02:46:14;;;;;;;11.30;3.50;;;;;;;10.17;76.99;102318.13;5043515;28;20033;-56
2022/06/14 02:48:48;;;;;;;7.88;3.25;;;;;;;10.23;76.99;102321.13;5033870;28;20064;-56
2022/06/14 02:51:26;;;;;;;7.28;3.03;;;;;;;10.29;76.80;102318.91;5036086;28;20043;-56
2022/06/14 02:54:10;;;;;;;8.27;2.97;;;;;;;10.26;76.48;102313.88;5038447;28;20109;-56
2022/06/14 02:56:47;;;;;;;11.73;3.65;;;;;;;10.23;76.79;102314.97;5040255;28;20036;-58
2022/06/14 02:59:26;;;;;;;6.43;3.30;;;;;;;10.23;76.88;102313.16;5039782;28;20117;-53
2022/06/14 03:02:08;;;;;;;9.30;3.63;;;;;;;10.24;76.66;102321.97;5036497;28;20055;-56
2022/06/14 03:04:38;;;;;;;9.60;3.60;;;;;;;10.08;76.54;102322.38;5043073;28;20051;-56
2022/06/14 03:07:13;;;;;;;7.97;2.97;;;;;;;9.97;76.72;102326.94;5036235;28;20033;-56
2022/06/14 03:09:43;;;;;;;8.70;3.72;;;;;;;9.83;76.81;102320.13;5043934;28;20447;-55
2022/06/14 03:12:26;;;;;;;7.43;3.30;;;;;;;9.89;76.93;102327.59;5039747;28;20029;-56
2022/06/14 03:15:15;;;;;;;9.70;3.60;;;;;;;9.91;77.39;102318.53;5037492;28;20032;-56
2022/06/14 03:18:04;;;;;;;11.55;3.80;;;;;;;9.93;77.44;102321.06;5035458;28;20096;-55
2022/06/14 03:21:06;;;;;;;11.13;3.97;;;;;;;9.88;77.49;102321.44;5042609;28;20060;-54
2022/06/14 03:23:40;;;;;;;10.18;4.05;;;;;;;9.79;77.31;102326.66;5023738;28;20086;-58
2022/06/14 03:26:24;;;;;;;10.68;4.20;;;;;;;9.80;77.80;102312.44;5042338;28;20509;-57
2022/06/14 03:29:04;;;;;;;10.43;4.30;;;;;;;9.75;77.94;102319.94;5039766;28;20092;-56
2022/06/14 03:31:43;;;;;;;11.63;3.58;;;;;;;9.66;77.85;102318.06;5041890;28;20063;-56
2022/06/14 03:34:16;;;;;;;8.80;3.15;;;;;;;9.58;77.80;102322.22;5040950;28;20505;-56
2022/06/14 03:36:42;;;;;;;5.30;3.15;;;;;;;9.54;78.08;102320.78;5039615;28;20082;-55
2022/06/14 03:39:20;;;;;;;8.10;2.80;;;;;;;9.52;78.37;102322.69;5040009;28;20448;-55
2022/06/14 03:41:49;;;;;;;8.35;2.95;;;;;;;9.47;78.58;102326.69;5040583;28;20056;-57
2022/06/14 03:44:16;;;;;;;8.63;3.27;;;;;;;9.40;78.60;102312.28;5036812;28;20025;-57
2022/06/14 03:47:07;;;;;;;8.10;3.17;;;;;;;9.52;78.70;102328.00;5037504;28;20275;-55
2022/06/14 03:49:32;;;;;;;9.90;3.60;;;;;;;9.49;78.59;102322.94;5040449;28;20021;-56
2022/06/14 03:52:06;;;;;;;8.38;3.40;;;;;;;9.51;78.87;102326.31;5040818;28;20385;-54
2022/06/14 03:54:48;;;;;;;13.55;3.70;;;;;;;9.59;79.12;102318.59;5037586;28;20107;-56
2022/06/14 03:57:38;;;;;;;9.32;3.72;;;;;;;9.63;78.81;102313.88;5038362;28;20032;-54
2022/06/14 04:00:17;;;;;;;7.85;3.30;;;;;;;9.65;78.98;102309.28;5037119;28;20052;-56
2022/06/14 04:02:54;;;;;;;9.77;3.53;;;;;;;9.69;78.84;102325.78;5040092;28;20575;-57
2022/06/14 04:05:32;;;;;;;12.88;3.97;;;;;;;9.72;79.11;102328.16;5039356;28;20040;-56
2022/06/14 04:08:23;;;;;;;8.45;3.70;;;;;;;9.74;79.10;102331.53;5037908;28;20021;-55
2022/06/14 04:11:18;;;;;;;6.65;3.08;;;;;;;9.76;78.86;102324.28;5041127;28;20032;-56
2022/06/14 04:14:04;;;;;;;7.90;3.03;;;;;;;9.78;78.92;102331.13;5041264;28;20020;-56
2022/06/14 04:16:53;;;;;;;5.72;3.40;;;;;;;9.80;78.68;102331.84;5040248;28;20036;-56
2022/06/14 04:19:37;;;;;;;;;;;;;;;9.96;78.56;102335.88;5038336;28;20403;-54
2022/06/14 04:22:19;;;;;;;5.80;3.33;;;;;;;9.88;78.55;102342.69;5036221;28;19916;-56
2022/06/14 04:24:53;;;;;;;7.30;3.33;;;;;;;9.87;78.52;102337.50;5038276;28;20065;-56
2022/06/14 04:27:49;;;;;;;6.28;3.38;;;;;;;9.93;78.80;102342.28;5037360;28;20032;-56
2022/06/14 04:30:36;;;;;;;6.68;3.22;;;;;;;9.95;78.98;102335.03;5023371;28;20107;-57
2022/06/14 04:33:07;;;;;;;8.57;3.47;;;;;;;9.97;78.75;102340.22;5037508;28;20079;-58
2022/06/14 04:35:42;;;;;;;7.57;3.65;;;;;;;9.90;78.88;102342.53;5039983;28;20156;-56
2022/06/14 04:38:19;;;;;;;7.82;3.80;;;;;;;10.01;79.30;102338.97;5037055;28;20212;-56
2022/06/14 04:41:07;;;;;;;7.95;4.07;;;;;;;10.07;79.36;102339.28;5038079;28;20017;-57
2022/06/14 04:43:51;;;;;;;10.02;4.40;;;;;;;10.10;79.56;102341.69;5039739;28;20017;-57
2022/06/14 04:46:19;;;;;;;12.27;4.55;;;;;;;10.15;79.46;102342.16;5040586;28;20025;-57
2022/06/14 04:48:51;;;;;;;10.25;4.43;;;;;;;10.19;79.53;102345.38;5037462;28;20021;-57
2022/06/14 04:51:29;;;;;;;6.50;3.90;;;;;;;10.21;80.03;102348.78;5037542;28;20036;-56
2022/06/14 04:54:11;;;;;;;10.85;4.63;;;;;;;10.20;79.54;102339.09;5036942;28;20033;-55
2022/06/14 04:56:57;;;;;;;8.52;3.85;;;;;;;10.25;80.04;102342.22;5040965;28;20028;-56
2022/06/14 04:59:29;;;;;;;9.57;4.30;;;;;;;10.26;79.77;102343.06;5037058;28;20029;-56
2022/06/14 05:02:01;;;;;;;12.88;4.18;;;;;;;10.28;79.97;102341.97;5036991;28;20112;-56
2022/06/14 05:04:36;;;;;;;8.10;4.53;;;;;;;10.35;79.93;102342.28;5039347;28;20041;-58
2022/06/14 05:07:09;;;;;;;12.30;4.90;;;;;;;10.38;80.43;102334.88;5039521;28;20095;-56
2022/06/14 05:10:02;;;;;;;12.93;4.90;;;;;;;10.46;80.44;102339.53;5040285;28;20499;-55
2022/06/14 05:12:30;;;;;;;11.95;5.13;;;;;;;10.55;80.78;102338.75;5027087;28;20033;-56
2022/06/14 05:15:03;;;;;;;12.95;5.60;;;;;;;10.62;80.85;102342.53;5038717;28;20762;-56
2022/06/14 05:17:37;;;;;;;15.15;5.78;;;;;;;10.69;81.27;102345.50;5038686;28;20481;-57
2022/06/14 05:20:13;;;;;;;13.82;6.13;;;;;;;10.78;81.07;102350.03;5039257;28;20029;-56
2022/06/14 05:22:52;;;;;;;12.02;5.65;;;;;;;10.82;81.61;102348.78;5040635;28;20052;-56
2022/06/14 05:25:18;;;;;;;11.57;5.45;;;;;;;10.89;81.78;102349.91;5037744;28;20037;-56
2022/06/14 05:27:53;;;;;;;18.40;6.78;;;;;;;11.01;81.80;102356.81;5040027;28;20239;-56
2022/06/14 05:30:37;;;;;;;16.55;6.32;;;;;;;11.12;81.45;102359.34;5039696;28;20500;-56
2022/06/14 05:33:16;;;;;;;18.30;7.13;;;;;;;11.28;82.01;102358.81;5040675;28;20035;-56
2022/06/14 05:35:48;;;;;;;18.85;7.28;;;;;;;11.44;81.60;102356.44;5041882;28;20024;-57
2022/06/14 05:38:19;;;;;;;15.38;6.35;;;;;;;11.64;81.39;102351.97;5040614;28;20051;-56
2022/06/14 05:40:57;;;;;;;18.48;7.03;;;;;;;11.76;81.29;102369.47;5043550;28;20031;-56
2022/06/14 05:43:28;;;;;;;18.38;6.95;;;;;;;11.86;81.49;102366.00;5041501;28;20029;-56
2022/06/14 05:46:04;;;;;;;18.05;6.78;;;;;;;12.05;81.18;102364.16;5041763;28;20068;-56
2022/06/14 05:48:52;;;;;;;15.25;6.60;;;;;;;12.12;80.81;102360.91;5041669;28;20032;-55
2022/06/14 05:51:24;;;;;;;14.50;6.13;;;;;;;12.17;80.72;102364.84;5041740;28;20032;-56
2022/06/14 05:53:52;;;;;;;16.77;6.50;;;;;;;12.36;80.53;102366.59;5044425;28;20020;-56
2022/06/14 05:56:17;;;;;;;16.25;6.90;;;;;;;12.60;80.86;102368.75;5041373;28;20364;-56
2022/06/14 05:59:24;;;;;;;14.98;6.38;;;;;;;12.74;80.29;102372.78;5044784;28;20314;-56
2022/06/14 06:02:04;;;;;;;16.45;6.68;;;;;;;12.92;79.57;102376.34;5041815;28;20060;-56
2022/06/14 06:04:54;;;;;;;16.05;5.82;;;;;;;12.92;79.01;102360.34;5026286;28;20061;-57
2022/06/14 06:07:25;;;;;;;13.10;5.07;;;;;;;13.07;78.37;102372.19;5018079;28;20442;-56
2022/06/14 06:09:59;;;;;;;14.85;5.05;;;;;;;13.16;77.76;102370.44;5048286;28;20009;-56
2022/06/14 06:12:31;;;;;;;14.35;5.10;;;;;;;13.27;77.43;102367.59;5050277;28;20408;-56
2022/06/14 06:15:21;;;;;;;11.25;4.88;;;;;;;13.31;76.61;102380.50;5041361;28;20053;-56
2022/06/14 06:17:52;;;;;;;14.20;5.05;;;;;;;13.39;76.28;102377.06;5027157;28;20037;-55
2022/06/14 06:20:29;;;;;;;15.23;5.13;;;;;;;13.47;75.95;102378.97;5040790;28;20060;-56
2022/06/14 06:23:23;;;;;;;19.83;5.93;;;;;;;13.60;75.51;102379.44;5042333;28;20115;-57
2022/06/14 06:25:53;;;;;;;14.38;4.78;;;;;;;13.69;75.07;102369.69;5038255;28;20767;-56
2022/06/14 06:28:32;;;;;;;13.02;4.97;;;;;;;13.73;74.62;102363.88;5034728;28;20048;-56
2022/06/14 06:31:04;;;;;;;12.02;4.80;;;;;;;13.80;74.40;102361.41;5045867;28;20479;-56
2022/06/14 06:33:34;;;;;;;14.20;4.78;;;;;;;13.93;73.99;102369.88;5043181;28;20057;-56
2022/06/14 06:36:23;;;;;;;6.78;3.20;;;;;;;13.99;72.35;102368.41;5043009;28;20036;-56
2022/06/14 06:39:22;;;;;;;9.27;3.78;;;;;;;14.02;71.43;102370.78;5040179;28;20387;-56
2022/06/14 06:41:54;;;;;;;14.05;4.30;;;;;;;14.04;71.39;102368.78;5046529;28;20049;-55
2022/06/14 06:44:32;;;;;;;8.73;3.90;;;;;;;14.06;70.77;102369.47;5041769;28;20032;-56
2022/06/14 06:47:20;;;;;;;12.77;4.20;;;;;;;14.15;70.04;102374.69;5041872;28;20032;-56
2022/06/14 06:50:04;;;;;;;8.60;3.03;;;;;;;14.24;69.63;102375.63;4996080;28;20045;-56
2022/06/14 06:52:49;;;;;;;9.98;3.25;;;;;;;14.36;69.27;102378.84;5042494;28;20033;-56
2022/06/14 06:55:53;;;;;;;5.90;2.25;;;;;;;14.43;68.34;102382.59;4998572;28;20049;-56
2022/06/14 06:58:25;;;;;;;13.75;2.95;;;;;;;14.46;67.73;102379.63;5014976;28;20045;-56
2022/06/14 07:00:54;;;;;;;9.70;3.03;;;;;;;14.53;67.26;102372.66;5058797;28;20114;-55
2022/06/14 07:03:31;;;;;;;8.50;2.20;;;;;;;14.61;66.33;102369.16;5049924;28;20520;-56
2022/06/14 07:06:00;;;;;;;7.15;2.42;;;;;;;14.71;65.91;102372.56;5046924;28;20113;-55
2022/06/14 07:08:56;;;;;;;8.95;2.35;;;;;;;14.81;65.17;102375.97;5047287;28;20046;-56
2022/06/14 07:11:26;;;;;;;13.88;3.00;;;;;;;14.90;65.46;102372.31;5060490;28;20381;-55
2022/06/14 07:14:06;;;;;;;10.95;2.60;;;;;;;14.93;65.16;102371.16;5055915;28;20043;-55
2022/06/14 07:16:41;;;;;;;6.00;2.20;;;;;;;14.95;64.19;102382.53;5041656;28;20026;-57
2022/06/14 07:19:31;;;;;;;9.00;2.20;;;;;;;15.05;63.65;102384.09;5044042;28;20029;-55
2022/06/14 07:22:11;;;;;;;5.95;2.78;;;;;;;15.08;62.36;102383.75;5041049;28;20120;-56
2022/06/14 07:24:45;;;;;;;5.15;1.80;;;;;;;15.02;61.02;102372.84;5039124;28;20488;-55
2022/06/14 07:27:15;;;;;;;9.02;1.88;;;;;;;15.10;61.04;102378.25;5041130;28;20535;-55
2022/06/14 07:29:50;;;;;;;7.10;2.05;;;;;;;15.12;60.02;102377.06;5050678;28;20028;-55
2022/06/14 07:32:23;;;;;;;7.22;2.08;;;;;;;15.12;58.76;102376.25;5047119;28;20471;-56
2022/06/14 07:34:50;;;;;;;5.15;1.70;;;;;;;15.08;58.28;102380.25;5048005;28;20060;-55
2022/06/14 07:37:27;;;;;;;5.63;2.03;;;;;;;15.05;57.73;102377.91;5052206;28;20020;-56
2022/06/14 07:40:30;;;;;;;7.00;2.10;;;;;;;15.06;57.82;102374.22;5055662;28;20021;-56
2022/06/14 07:43:09;;;;;;;4.10;1.38;;;;;;;15.07;56.77;102373.22;5045040;28;20043;-56
2022/06/14 07:45:38;;;;;;;6.68;1.20;;;;;;;15.19;56.32;102369.22;5048436;28;20155;-57
2022/06/14 07:48:14;;;;;;;;;;;;;;;15.29;57.04;102369.91;5046354;28;20166;-57
2022/06/14 07:50:39;;;;;;;3.65;1.88;;;;;;;15.31;56.51;102367.91;5034030;28;19943;-57
2022/06/14 07:53:08;;;;;;;6.70;2.30;;;;;;;15.39;56.64;102373.28;5057131;28;20039;-56
2022/06/14 07:55:44;;;;;;;7.95;2.65;;;;;;;15.39;56.34;102370.63;5056742;28;20040;-57
2022/06/14 07:58:16;;;;;;;4.53;2.05;;;;;;;15.47;56.49;102372.47;5044190;28;20670;-56
2022/06/14 08:01:07;;;;;;;6.55;2.25;;;;;;;15.53;56.32;102366.44;5045121;28;20095;-57
2022/06/14 08:03:56;;;;;;;6.53;2.50;;;;;;;15.60;56.04;102372.84;5047404;28;20021;-57
2022/06/14 08:06:31;;;;;;;7.55;2.58;;;;;;;15.67;56.55;102379.22;5051839;28;20024;-58
2022/06/14 08:09:07;;;;;;;5.90;2.67;;;;;;;15.69;56.33;102371.03;5052754;28;20543;-56
2022/06/14 08:11:38;;;;;;;10.88;3.10;;;;;;;15.75;56.55;102370.34;5059030;28;20028;-57
2022/06/14 08:14:10;;;;;;;10.75;3.40;;;;;;;15.86;56.91;102361.13;5048625;28;20017;-57
2022/06/14 08:16:36;;;;;;;8.43;3.17;;;;;;;15.91;57.08;102367.69;5055654;28;20111;-57
2022/06/14 08:19:10;;;;;;;9.63;3.25;;;;;;;16.02;56.92;102363.81;5053715;28;20108;-56
2022/06/14 08:21:42;;;;;;;10.73;2.83;;;;;;;16.11;56.25;102360.94;5045604;28;20495;-56
2022/06/14 08:24:14;;;;;;;11.20;3.40;;;;;;;16.24;56.55;102363.13;5054070;28;20516;-56
2022/06/14 08:26:54;;;;;;;10.20;3.67;;;;;;;16.35;56.81;102354.69;5063569;28;20575;-56
2022/06/14 08:29:29;;;;;;;9.82;2.80;;;;;;;16.46;56.31;102361.53;5057371;28;20024;-57
2022/06/14 08:32:13;;;;;;;8.93;2.95;;;;;;;16.58;56.39;102353.97;5056749;28;20488;-56
2022/06/14 08:34:49;;;;;;;7.15;3.22;;;;;;;16.61;56.47;102350.94;5054178;28;20025;-55
2022/06/14 08:37:36;;;;;;;9.77;3.00;;;;;;;16.72;55.77;102348.72;5060170;28;20035;-56
2022/06/14 08:40:38;;;;;;;14.43;3.33;;;;;;;16.94;56.09;102352.50;5047824;28;20083;-56
2022/06/14 08:43:08;;;;;;;10.45;3.70;;;;;;;17.01;55.79;102349.94;5044998;28;20048;-55
2022/06/14 08:46:00;;;;;;;8.30;3.05;;;;;;;17.22;55.54;102352.00;5056351;28;20999;-56
2022/06/14 08:48:42;;;;;;;7.32;2.72;;;;;;;17.32;55.55;102352.59;5017880;28;20593;-56
2022/06/14 08:51:14;;;;;;;8.20;2.78;;;;;;;17.52;55.63;102353.81;5043682;28;20373;-55
2022/06/14 08:54:07;;;;;;;8.95;3.10;;;;;;;17.74;54.75;102349.47;5041597;28;20464;-56
2022/06/14 08:57:07;;;;;;;7.35;2.85;;;;;;;17.78;53.55;102345.41;5048371;28;20083;-56
2022/06/14 08:59:57;;;;;;;6.82;2.22;;;;;;;17.76;53.11;102338.53;5041142;28;20052;-56
2022/06/14 09:02:40;;;;;;;5.93;2.10;;;;;;;17.83;52.95;102343.00;5044554;28;20404;-56
2022/06/14 09:05:18;;;;;;;5.35;2.03;;;;;;;18.13;53.42;102341.22;5052121;28;20368;-56
2022/06/14 09:08:08;;;;;;;7.18;1.88;;;;;;;18.37;52.73;102341.97;5044976;28;20045;-55
2022/06/14 09:11:06;;;;;;;5.45;1.80;;;;;;;18.58;53.01;102336.69;5053202;28;20017;-55
2022/06/14 09:13:44;;;;;;;;;;;;;;;18.71;52.83;102344.13;5039423;28;20135;-56
2022/06/14 09:16:44;;;;;;;8.35;2.35;;;;;;;18.58;51.47;102334.84;5038037;28;20411;-55
2022/06/14 09:19:21;;;;;;;6.00;2.40;;;;;;;18.86;51.84;102339.56;5040193;28;20377;-56
2022/06/14 09:22:09;;;;;;;8.32;2.30;;;;;;;18.88;50.75;102332.97;5043938;28;20032;-56
2022/06/14 09:24:55;;;;;;;6.28;1.90;;;;;;;18.83;50.38;102334.56;5034824;28;20036;-56
2022/06/14 09:27:53;;;;;;;6.05;2.35;;;;;;;18.95;50.67;102334.88;5041601;28;20074;-56
2022/06/14 09:30:43;;;;;;;7.05;2.20;;;;;;;19.12;50.23;102339.03;5044492;28;20033;-55
2022/06/14 09:33:46;;;;;;;7.32;2.40;;;;;;;19.23;49.03;102341.22;5038787;28;20025;-55
2022/06/14 09:36:50;;;;;;;4.63;2.15;;;;;;;19.16;48.76;102335.75;5043000;28;20024;-56
2022/06/14 09:39:50;;;;;;;6.97;2.00;;;;;;;19.36;49.02;102335.13;5003465;28;20087;-56
2022/06/14 09:42:20;;;;;;;5.63;2.10;;;;;;;19.36;48.97;102327.88;5045208;28;20142;-56
2022/06/14 09:45:16;;;;;;;6.35;2.28;;;;;;;19.70;49.06;102329.06;5045326;28;20033;-55
2022/06/14 09:48:05;;;;;;;5.70;2.03;;;;;;;19.91;49.45;102320.91;5040220;28;20130;-55
2022/06/14 09:51:01;;;;;;;8.52;2.05;;;;;;;20.17;48.50;102319.44;5031039;28;20038;-56
2022/06/14 09:53:35;;;;;;;4.70;1.77;;;;;;;20.20;48.15;102316.34;5042003;28;20112;-56
2022/06/14 09:56:24;;;;;;;7.60;1.90;;;;;;;20.24;46.92;102317.59;5036644;28;20133;-58
2022/06/14 09:58:49;;;;;;;;;;;;;;;20.45;47.58;102317.56;5039818;28;20036;-55
2022/06/14 10:01:30;;;;;;;7.47;2.67;;;;;;;20.52;46.86;102318.41;5040608;28;19913;-56
2022/06/14 10:04:22;;;;;;;9.77;2.45;;;;;;;20.66;46.93;102313.94;5044339;28;20047;-57
2022/06/14 10:07:20;;;;;;;6.63;2.20;;;;;;;20.80;46.78;102309.41;5000256;28;20047;-56
2022/06/14 10:09:51;;;;;;;;;;;;;;;21.01;47.47;102315.50;5037351;28;20082;-57
2022/06/14 10:12:46;;;;;;;6.20;2.10;;;;;;;21.04;45.78;102301.59;5031761;28;19917;-56
2022/06/14 10:15:40;;;;;;;5.57;2.30;;;;;;;20.97;44.85;102310.72;4988581;28;20043;-58
2022/06/14 10:18:24;;;;;;;4.63;2.22;;;;;;;20.60;44.45;102298.53;5035943;28;20052;-56
2022/06/14 10:20:58;;;;;;;4.80;2.20;;;;;;;20.71;45.44;102295.25;5033772;28;20083;-56
2022/06/14 10:23:42;;;;;;;9.23;2.70;;;;;;;21.15;46.43;102292.06;5043951;28;20048;-55
2022/06/14 10:29:37;;;;;;;7.38;2.45;;;;;;;21.71;44.82;102291.72;5042934;28;20143;-56
2022/06/14 10:32:33;;;;;;;6.20;2.60;;;;;;;21.77;44.31;102292.75;5044361;28;20074;-55
2022/06/14 10:35:08;;;;;;;6.90;2.80;;;;;;;21.72;43.50;102285.28;5024386;28;20392;-55
2022/06/14 10:37:58;;;;;;;5.95;2.28;;;;;;;21.64;43.97;102280.06;5038127;28;20060;-58
2022/06/14 10:40:37;;;;;;;5.18;2.33;;;;;;;21.71;44.33;102280.91;5035887;28;20042;-56
2022/06/14 10:43:18;;;;;;;8.80;3.40;;;;;;;21.92;44.31;102280.66;5038409;28;20385;-56
2022/06/14 10:45:47;;;;;;;6.57;2.92;;;;;;;21.94;44.42;102269.59;5044179;28;20120;-57
2022/06/14 10:48:50;;;;;;;5.95;2.55;;;;;;;21.83;43.65;102265.69;5035351;28;20484;-55
2022/06/14 10:51:24;;;;;;;7.00;2.65;;;;;;;21.74;43.92;102249.91;5037405;28;20029;-56
2022/06/14 10:54:00;;;;;;;4.75;2.38;;;;;;;22.03;44.96;102262.13;5041562;28;20032;-56
2022/06/14 10:56:53;;;;;;;5.55;2.03;;;;;;;22.13;44.28;102263.38;5048283;28;20043;-56
2022/06/14 10:59:39;;;;;;;9.35;2.40;;;;;;;22.22;43.46;102253.13;5054301;28;20021;-56
2022/06/14 11:02:23;;;;;;;5.47;2.28;;;;;;;22.25;42.75;102258.13;5043011;28;20024;-56
2022/06/14 11:05:03;;;;;;;7.40;2.38;;;;;;;22.37;42.97;102251.00;5043142;28;20024;-55
2022/06/14 11:07:57;;;;;;;6.35;2.35;;;;;;;22.53;42.72;102249.66;5047421;28;20016;-56
2022/06/14 11:10:53;;;;;;;6.68;2.28;;;;;;;22.50;41.60;102245.53;5012352;28;20045;-56
2022/06/14 11:13:38;;;;;;;5.15;2.15;;;;;;;22.58;42.61;102247.19;5034254;28;20037;-56
2022/06/14 11:16:23;;;;;;;5.90;2.40;;;;;;;22.63;42.33;102244.66;5055223;28;20033;-57
2022/06/14 11:19:01;;;;;;;6.68;2.13;;;;;;;22.62;42.61;102244.84;5026736;28;20029;-56
2022/06/14 11:22:03;;;;;;;6.45;2.35;;;;;;;22.72;41.98;102234.38;5048275;28;20104;-56
2022/06/14 11:24:48;;;;;;;5.38;1.83;;;;;;;22.67;41.99;102234.22;5048708;28;20481;-56
2022/06/14 11:27:13;;;;;;;7.07;2.05;;;;;;;22.50;41.21;102239.28;5051526;28;20025;-56
2022/06/14 11:29:44;;;;;;;6.57;2.20;;;;;;;22.25;41.00;102225.63;5054833;28;20025;-56
2022/06/14 11:32:25;;;;;;;6.30;2.50;;;;;;;22.35;41.75;102230.63;5045808;28;20351;-56
2022/06/14 11:35:19;;;;;;;4.97;2.20;;;;;;;22.35;41.20;102226.03;5048878;28;20127;-57
2022/06/14 11:38:20;;;;;;;7.07;2.40;;;;;;;22.50;41.38;102220.31;5040672;28;20025;-57
2022/06/14 11:40:51;;;;;;;6.55;2.55;;;;;;;22.50;42.20;102218.44;5001423;28;20037;-55
2022/06/14 11:43:59;;;;;;;5.93;2.20;;;;;;;22.63;42.25;102214.03;5045800;28;20032;-56
2022/06/14 11:46:42;;;;;;;4.80;1.88;;;;;;;22.68;41.93;102214.19;5055670;28;20040;-56
2022/06/14 11:49:23;;;;;;;4.63;1.98;;;;;;;22.70;41.43;102206.69;5053668;28;20722;-57
2022/06/14 11:52:20;;;;;;;5.70;2.08;;;;;;;22.87;41.35;102210.56;5041673;28;20550;-56
2022/06/14 11:55:20;;;;;;;4.78;2.10;;;;;;;22.97;40.85;102197.38;5046353;28;20109;-55
2022/06/14 11:58:05;;;;;;;5.93;1.92;;;;;;;22.82;40.86;102204.97;5043437;28;20016;-56
2022/06/14 12:01:19;;;;;;;6.13;2.38;;;;;;;22.91;40.14;102197.41;5057379;28;20086;-56
2022/06/14 12:03:59;;;;;;;6.18;2.17;;;;;;;22.99;40.80;102195.25;4979202;28;20033;-57
2022/06/14 12:06:42;;;;;;;6.82;2.17;;;;;;;23.03;40.43;102192.94;5045477;28;20043;-57
2022/06/14 12:09:21;;;;;;;6.18;2.10;;;;;;;23.06;40.49;102198.75;5048283;28;20031;-56
2022/06/14 12:11:54;;;;;;;4.75;2.10;;;;;;;23.11;40.57;102198.06;5044420;28;20033;-57
2022/06/14 12:14:25;;;;;;;7.45;2.10;;;;;;;23.06;40.23;102200.63;5063338;28;20291;-56
2022/06/14 12:17:18;;;;;;;10.57;2.45;;;;;;;23.15;40.81;102196.63;5045180;28;20603;-56
2022/06/14 12:19:49;;;;;;;7.88;2.50;;;;;;;23.21;39.92;102201.16;5042406;28;20040;-55
2022/06/14 12:22:28;;;;;;;6.30;2.10;;;;;;;23.27;39.39;102192.13;5048073;28;20108;-56
2022/06/14 12:27:45;;;;;;;5.65;1.83;;;;;;;23.26;39.56;102189.63;5046480;28;20152;-54
2022/06/14 12:30:14;;;;;;;6.70;2.05;;;;;;;23.29;39.05;102190.00;5053335;28;20079;-55
2022/06/14 12:32:59;;;;;;;4.32;1.95;;;;;;;23.21;38.77;102182.16;5051200;28;20032;-57
2022/06/14 12:35:33;;;;;;;9.80;2.13;;;;;;;23.25;39.76;102177.13;5055063;28;20021;-57